createdAt,value
2023-09-09T00:00:51.492Z,50.09
2023-09-09T00:03:19.926Z,49.93
2023-09-09T00:05:48.004Z,49.87
2023-09-09T00:08:16.726Z,49.97
2023-09-09T00:10:44.713Z,50.18
2023-09-09T00:13:14.541Z,50.30
2023-09-09T00:15:42.545Z,49.98
2023-09-09T00:18:10.577Z,49.97
2023-09-09T00:20:42.015Z,50.09
2023-09-09T00:23:10.108Z,50.14
2023-09-09T00:25:38.459Z,50.07
2023-09-09T00:28:07.937Z,50.17
2023-09-09T00:30:37.363Z,50.10
2023-09-09T00:33:08.762Z,50.10
2023-09-09T00:35:39.681Z,50.03
2023-09-09T00:38:08.668Z,50.20
2023-09-09T00:40:36.869Z,50.13
2023-09-09T00:43:05.485Z,49.79
2023-09-09T00:45:33.456Z,50.19
2023-09-09T00:48:03.112Z,50.06
2023-09-09T00:50:31.393Z,50.21
2023-09-09T00:52:59.997Z,49.97
2023-09-09T00:55:29.084Z,49.99
2023-09-09T00:57:57.077Z,49.98
2023-09-09T01:00:24.968Z,49.93
2023-09-09T01:02:53.063Z,49.82
2023-09-09T01:05:22.467Z,49.87
2023-09-09T01:07:51.144Z,49.83
2023-09-09T01:10:20.268Z,50.20
2023-09-09T01:12:48.343Z,50.06
2023-09-09T01:15:16.309Z,50.31
2023-09-09T01:17:44.712Z,50.26
2023-09-09T01:20:15.113Z,50.00
2023-09-09T01:22:47.412Z,50.02
2023-09-09T01:25:15.547Z,49.84
2023-09-09T01:27:43.746Z,49.95
2023-09-09T01:30:13.164Z,49.98
2023-09-09T01:32:41.427Z,49.87
2023-09-09T01:35:09.654Z,49.84
2023-09-09T01:37:37.710Z,50.26
2023-09-09T01:40:11.472Z,49.83
2023-09-09T01:42:39.816Z,50.11
2023-09-09T01:45:09.970Z,50.13
2023-09-09T01:47:37.967Z,50.21
2023-09-09T01:50:07.004Z,49.80
2023-09-09T01:52:35.052Z,49.94
2023-09-09T01:55:03.014Z,50.12
2023-09-09T01:57:32.308Z,49.73
2023-09-09T02:00:00.203Z,49.90
2023-09-09T02:02:28.298Z,49.83
2023-09-09T02:04:56.311Z,49.98
2023-09-09T02:07:24.248Z,49.88
2023-09-09T02:09:52.141Z,49.91
2023-09-09T02:12:20.699Z,49.85
2023-09-09T02:14:50.015Z,49.85
2023-09-09T02:17:18.194Z,49.86
2023-09-09T02:19:46.103Z,49.62
2023-09-09T02:22:14.045Z,49.90
2023-09-09T02:24:41.918Z,49.96
2023-09-09T02:27:10.516Z,49.83
2023-09-09T02:29:39.080Z,49.94
2023-09-09T02:32:08.505Z,49.89
2023-09-09T02:34:36.476Z,50.04
2023-09-09T02:37:17.847Z,49.87
2023-09-09T02:39:46.510Z,49.50
2023-09-09T02:42:16.753Z,49.73
2023-09-09T02:44:45.630Z,49.58
2023-09-09T02:47:15.161Z,49.63
2023-09-09T02:49:44.977Z,49.87
2023-09-09T02:52:14.711Z,49.73
2023-09-09T02:54:43.074Z,49.60
2023-09-09T02:57:11.111Z,49.86
2023-09-09T02:59:39.375Z,49.75
2023-09-09T03:02:10.418Z,49.69
2023-09-09T03:04:39.789Z,49.64
2023-09-09T03:07:08.045Z,49.42
2023-09-09T03:09:37.174Z,49.49
2023-09-09T03:12:06.510Z,49.60
2023-09-09T03:14:34.972Z,49.79
2023-09-09T03:17:02.991Z,49.56
2023-09-09T03:19:31.737Z,49.48
2023-09-09T03:22:01.045Z,49.65
2023-09-09T03:24:28.927Z,49.52
2023-09-09T03:26:57.208Z,49.63
2023-09-09T03:29:25.517Z,49.43
2023-09-09T03:31:53.925Z,49.59
2023-09-09T03:34:21.920Z,49.63
2023-09-09T03:36:49.827Z,49.50
2023-09-09T03:39:19.215Z,49.35
2023-09-09T03:41:47.130Z,49.62
2023-09-09T03:44:15.601Z,49.49
2023-09-09T03:46:45.360Z,49.54
2023-09-09T03:49:13.406Z,49.44
2023-09-09T03:51:41.438Z,49.64
2023-09-09T03:54:09.520Z,49.59
2023-09-09T03:56:38.808Z,49.46
2023-09-09T03:59:06.888Z,49.46
2023-09-09T04:01:37.759Z,49.33
2023-09-09T04:04:06.433Z,49.71
2023-09-09T04:06:34.531Z,49.30
2023-09-09T04:09:02.749Z,49.38
2023-09-09T04:11:30.762Z,49.48
2023-09-09T04:14:00.800Z,49.40
2023-09-09T04:16:29.464Z,49.46
2023-09-09T04:18:57.546Z,49.40
2023-09-09T04:21:25.485Z,49.27
2023-09-09T04:23:53.373Z,49.19
2023-09-09T04:26:21.319Z,49.13
2023-09-09T04:28:49.236Z,49.43
2023-09-09T04:31:19.019Z,49.31
2023-09-09T04:33:47.192Z,49.61
2023-09-09T04:36:15.272Z,49.28
2023-09-09T04:38:43.286Z,49.13
2023-09-09T04:41:11.457Z,49.31
2023-09-09T04:43:39.685Z,49.10
2023-09-09T04:46:08.283Z,49.48
2023-09-09T04:48:37.706Z,49.41
2023-09-09T04:51:05.681Z,49.24
2023-09-09T04:53:33.946Z,49.02
2023-09-09T04:56:03.431Z,49.20
2023-09-09T04:58:34.395Z,49.26
2023-09-09T05:01:02.528Z,49.13
2023-09-09T05:03:31.692Z,49.15
2023-09-09T05:06:01.064Z,49.21
2023-09-09T05:08:29.135Z,49.27
2023-09-09T05:10:57.317Z,49.22
2023-09-09T05:13:25.325Z,48.98
2023-09-09T05:15:54.232Z,49.28
2023-09-09T05:18:22.269Z,48.94
2023-09-09T05:20:50.265Z,48.90
2023-09-09T05:23:19.747Z,49.18
2023-09-09T05:25:48.666Z,48.95
2023-09-09T05:28:16.685Z,48.85
2023-09-09T05:30:44.739Z,48.86
2023-09-09T05:33:13.443Z,49.01
2023-09-09T05:35:41.463Z,48.91
2023-09-09T05:38:09.426Z,48.75
2023-09-09T05:40:38.810Z,48.65
2023-09-09T05:43:06.867Z,48.99
2023-09-09T05:45:34.779Z,48.86
2023-09-09T05:48:02.862Z,48.87
2023-09-09T05:50:31.465Z,48.56
2023-09-09T05:53:02.757Z,48.66
2023-09-09T05:55:32.104Z,48.77
2023-09-09T05:58:01.427Z,48.93
2023-09-09T06:00:29.897Z,48.86
2023-09-09T06:02:57.839Z,48.57
2023-09-09T06:05:25.972Z,48.66
2023-09-09T06:07:53.926Z,48.54
2023-09-09T06:10:22.108Z,48.51
2023-09-09T06:12:50.582Z,48.24
2023-09-09T06:15:19.916Z,48.26
2023-09-09T06:17:47.846Z,48.43
2023-09-09T06:20:16.075Z,47.92
2023-09-09T06:22:44.482Z,48.13
2023-09-09T06:25:12.502Z,48.40
2023-09-09T06:27:40.819Z,48.11
2023-09-09T06:30:09.535Z,48.02
2023-09-09T06:32:39.610Z,48.23
2023-09-09T06:35:08.285Z,48.01
2023-09-09T06:37:36.263Z,48.33
2023-09-09T06:40:04.576Z,48.42
2023-09-09T06:42:33.088Z,47.94
2023-09-09T06:45:04.239Z,48.16
2023-09-09T06:47:32.216Z,48.39
2023-09-09T06:50:01.590Z,48.43
2023-09-09T06:52:29.536Z,48.07
2023-09-09T06:54:57.401Z,48.41
2023-09-09T06:57:25.290Z,48.47
2023-09-09T06:59:53.169Z,48.39
2023-09-09T07:02:21.066Z,48.05
2023-09-09T07:04:49.208Z,48.02
2023-09-09T07:07:19.220Z,48.18
2023-09-09T07:09:48.994Z,48.38
2023-09-09T07:12:16.957Z,47.80
2023-09-09T07:14:44.955Z,47.94
2023-09-09T07:17:12.966Z,47.96
2023-09-09T07:19:40.909Z,47.74
2023-09-09T07:22:08.936Z,47.89
2023-09-09T07:24:38.205Z,47.68
2023-09-09T07:27:06.424Z,47.93
2023-09-09T07:29:34.369Z,47.63
2023-09-09T07:32:02.364Z,47.75
2023-09-09T07:34:30.284Z,47.98
2023-09-09T07:36:58.295Z,47.70
2023-09-09T07:39:29.146Z,47.64
2023-09-09T07:41:58.566Z,47.87
2023-09-09T07:44:26.495Z,47.98
2023-09-09T07:46:54.481Z,47.64
2023-09-09T07:49:23.052Z,48.06
2023-09-09T07:51:51.884Z,47.52
2023-09-09T07:54:19.800Z,47.66
2023-09-09T07:56:47.701Z,47.92
2023-09-09T07:59:16.990Z,47.80
2023-09-09T08:01:46.033Z,47.79
2023-09-09T08:04:14.100Z,47.69
2023-09-09T08:06:42.319Z,47.48
2023-09-09T08:09:10.242Z,47.28
2023-09-09T08:11:38.119Z,47.13
2023-09-09T08:14:06.175Z,47.00
2023-09-09T08:16:35.491Z,46.90
2023-09-09T08:19:03.479Z,46.92
2023-09-09T08:21:31.785Z,46.66
2023-09-09T08:24:01.758Z,46.68
2023-09-09T08:26:31.005Z,46.99
2023-09-09T08:28:58.966Z,46.94
2023-09-09T08:31:27.170Z,46.60
2023-09-09T08:33:56.515Z,46.84
2023-09-09T08:36:24.389Z,46.68
2023-09-09T08:38:57.971Z,46.44
2023-09-09T08:41:40.539Z,46.54
2023-09-09T08:44:16.707Z,46.17
2023-09-09T08:46:44.670Z,46.49
2023-09-09T08:49:16.147Z,46.50
2023-09-09T08:51:50.889Z,46.72
2023-09-09T08:54:19.267Z,46.38
2023-09-09T08:56:47.632Z,46.90
2023-09-09T08:59:16.098Z,46.47
2023-09-09T09:01:45.662Z,46.46
2023-09-09T09:04:18.125Z,47.01
2023-09-09T09:06:49.383Z,46.96
2023-09-09T09:09:17.832Z,46.94
2023-09-09T09:11:46.352Z,47.00
2023-09-09T09:14:14.348Z,47.05
2023-09-09T09:16:43.210Z,47.14
2023-09-09T09:19:22.148Z,46.69
2023-09-09T09:21:50.569Z,46.75
2023-09-09T09:24:23.154Z,47.12
2023-09-09T09:26:51.161Z,46.86
2023-09-09T09:29:19.097Z,47.11
2023-09-09T09:31:52.988Z,46.77
2023-09-09T09:34:23.441Z,46.98
2023-09-09T09:36:51.633Z,47.12
2023-09-09T09:39:20.963Z,47.18
2023-09-09T09:41:49.968Z,47.10
2023-09-09T09:44:22.182Z,47.22
2023-09-09T09:47:04.393Z,47.28
2023-09-09T09:49:37.964Z,46.87
2023-09-09T09:52:07.157Z,46.85
2023-09-09T09:54:36.528Z,47.09
2023-09-09T09:57:06.553Z,47.25
2023-09-09T09:59:36.903Z,46.88
2023-09-09T10:02:05.473Z,47.30
2023-09-09T10:04:43.443Z,46.99
2023-09-09T10:07:13.461Z,47.13
2023-09-09T10:09:47.220Z,47.37
2023-09-09T10:12:29.939Z,47.52
2023-09-09T10:15:08.013Z,47.32
2023-09-09T10:17:37.416Z,47.31
2023-09-09T10:20:08.592Z,47.15
2023-09-09T10:22:38.599Z,47.04
2023-09-09T10:25:08.493Z,47.11
2023-09-09T10:27:37.365Z,47.45
2023-09-09T10:30:07.500Z,47.98
2023-09-09T10:32:36.670Z,47.71
2023-09-09T10:35:08.386Z,47.58
2023-09-09T10:37:38.919Z,47.65
2023-09-09T10:40:08.912Z,47.79
2023-09-09T10:42:40.723Z,47.68
2023-09-09T10:45:24.085Z,47.83
2023-09-09T10:47:59.985Z,48.12
2023-09-09T10:50:48.417Z,48.06
2023-09-09T10:53:18.571Z,48.06
2023-09-09T10:55:47.791Z,48.22
2023-09-09T10:58:19.333Z,47.88
2023-09-09T11:00:48.672Z,47.77
2023-09-09T11:03:17.900Z,48.06
2023-09-09T11:06:07.463Z,47.91
2023-09-09T11:08:39.937Z,47.71
2023-09-09T11:11:09.801Z,47.62
2023-09-09T11:13:41.948Z,47.99
2023-09-09T11:16:10.100Z,48.09
2023-09-09T11:18:39.503Z,47.62
2023-09-09T11:21:09.577Z,47.85
2023-09-09T11:23:38.092Z,47.59
2023-09-09T11:26:07.904Z,48.12
2023-09-09T11:28:36.024Z,47.96
2023-09-09T11:31:03.936Z,47.67
2023-09-09T11:33:31.928Z,47.66
2023-09-09T11:35:59.817Z,47.63
2023-09-09T11:38:29.119Z,47.95
2023-09-09T11:40:58.351Z,47.77
2023-09-09T11:43:26.268Z,48.17
2023-09-09T11:45:55.758Z,48.18
2023-09-09T11:48:24.467Z,48.20
2023-09-09T11:50:53.358Z,48.28
2023-09-09T11:53:21.855Z,47.91
2023-09-09T11:55:55.840Z,48.23
2023-09-09T11:58:23.816Z,47.88
2023-09-09T12:00:51.740Z,48.29
2023-09-09T12:03:24.631Z,48.10
2023-09-09T12:05:54.866Z,48.34
2023-09-09T12:08:23.421Z,48.15
2023-09-09T12:10:52.010Z,48.21
2023-09-09T12:13:21.373Z,48.33
2023-09-09T12:16:03.834Z,48.49
2023-09-09T12:18:34.364Z,48.48
2023-09-09T12:21:03.507Z,48.35
2023-09-09T12:23:32.515Z,48.19
2023-09-09T12:26:12.786Z,48.59
2023-09-09T12:28:43.172Z,48.70
2023-09-09T12:31:11.994Z,48.89
2023-09-09T12:33:45.332Z,48.92
2023-09-09T12:36:18.020Z,48.86
2023-09-09T12:38:47.556Z,48.91
2023-09-09T12:41:20.089Z,48.68
2023-09-09T12:43:50.316Z,48.95
2023-09-09T12:46:20.478Z,48.72
2023-09-09T12:48:53.280Z,49.13
2023-09-09T12:51:21.825Z,48.65
2023-09-09T12:53:49.821Z,48.63
2023-09-09T12:56:17.889Z,49.14
2023-09-09T12:58:45.819Z,49.14
2023-09-09T13:01:16.066Z,48.80
2023-09-09T13:03:44.611Z,48.95
2023-09-09T13:06:12.834Z,49.15
2023-09-09T13:08:41.210Z,48.80
2023-09-09T13:11:09.291Z,49.13
2023-09-09T13:13:39.040Z,49.21
2023-09-09T13:16:08.284Z,49.21
2023-09-09T13:18:37.704Z,49.21
2023-09-09T13:21:05.661Z,49.06
2023-09-09T13:23:33.618Z,48.81
2023-09-09T13:26:01.601Z,49.27
2023-09-09T13:28:29.601Z,49.31
2023-09-09T13:30:57.651Z,49.13
2023-09-09T13:33:25.674Z,49.30
2023-09-09T13:35:54.983Z,49.19
2023-09-09T13:38:22.919Z,48.83
2023-09-09T13:40:50.862Z,49.07
2023-09-09T13:43:18.892Z,49.18
2023-09-09T13:45:46.822Z,48.99
2023-09-09T13:48:15.011Z,49.12
2023-09-09T13:50:43.426Z,49.12
2023-09-09T13:53:12.722Z,49.31
2023-09-09T13:55:40.605Z,49.00
2023-09-09T13:58:08.495Z,49.47
2023-09-09T14:00:36.450Z,49.48
2023-09-09T14:03:05.153Z,49.40
2023-09-09T14:05:33.163Z,49.49
2023-09-09T14:08:01.072Z,49.57
2023-09-09T14:10:30.354Z,49.55
2023-09-09T14:12:58.258Z,49.47
2023-09-09T14:15:26.277Z,49.62
2023-09-09T14:17:54.321Z,49.65
2023-09-09T14:20:22.253Z,49.61
2023-09-09T14:22:50.117Z,49.23
2023-09-09T14:25:18.119Z,49.75
2023-09-09T14:27:47.392Z,49.64
2023-09-09T14:30:15.778Z,49.46
2023-09-09T14:32:43.816Z,49.29
2023-09-09T14:35:11.734Z,49.36
2023-09-09T14:37:39.612Z,49.67
2023-09-09T14:40:09.203Z,49.77
2023-09-09T14:42:37.058Z,49.70
2023-09-09T14:45:07.413Z,49.80
2023-09-09T14:47:35.393Z,49.65
2023-09-09T14:50:04.193Z,49.79
2023-09-09T14:52:32.874Z,49.44
2023-09-09T14:55:00.813Z,49.53
2023-09-09T14:57:28.722Z,49.48
2023-09-09T14:59:56.658Z,49.73
2023-09-09T15:02:25.998Z,49.52
2023-09-09T15:04:54.061Z,50.00
2023-09-09T15:07:22.226Z,49.96
2023-09-09T15:09:50.444Z,49.70
2023-09-09T15:12:18.370Z,49.54
2023-09-09T15:14:46.270Z,49.48
2023-09-09T15:17:14.158Z,49.96
2023-09-09T15:19:43.654Z,50.02
2023-09-09T15:22:11.824Z,49.97
2023-09-09T15:24:39.713Z,49.93
2023-09-09T15:27:07.648Z,49.69
2023-09-09T15:29:35.908Z,49.56
2023-09-09T15:32:04.601Z,49.66
2023-09-09T15:34:32.711Z,49.76
2023-09-09T15:37:01.971Z,50.06
2023-09-09T15:39:29.850Z,49.73
2023-09-09T15:41:57.717Z,49.66
2023-09-09T15:44:25.721Z,50.12
2023-09-09T15:46:53.737Z,49.89
2023-09-09T15:49:24.109Z,49.85
2023-09-09T15:51:52.177Z,50.12
2023-09-09T15:54:21.436Z,50.03
2023-09-09T15:56:49.524Z,50.07
2023-09-09T15:59:17.492Z,49.64
2023-09-09T16:01:45.475Z,50.25
2023-09-09T16:04:13.492Z,50.22
2023-09-09T16:06:41.510Z,50.10
2023-09-09T16:09:09.419Z,50.05
2023-09-09T16:11:38.715Z,50.10
2023-09-09T16:14:06.585Z,50.11
2023-09-09T16:16:34.635Z,49.99
2023-09-09T16:19:02.580Z,50.18
2023-09-09T16:21:30.480Z,50.13
2023-09-09T16:23:59.191Z,50.20
2023-09-09T16:26:27.140Z,50.28
2023-09-09T16:28:56.474Z,49.90
2023-09-09T16:31:24.492Z,50.19
2023-09-09T16:33:52.422Z,50.21
2023-09-09T16:36:20.402Z,50.17
2023-09-09T16:38:48.391Z,50.25
2023-09-09T16:41:16.282Z,49.95
2023-09-09T16:43:45.184Z,49.80
2023-09-09T16:46:14.597Z,49.86
2023-09-09T16:48:42.517Z,49.82
2023-09-09T16:51:13.361Z,49.93
2023-09-09T16:53:41.948Z,50.33
2023-09-09T16:56:10.119Z,50.33
2023-09-09T16:58:38.084Z,49.86
2023-09-09T17:01:06.032Z,50.38
2023-09-09T17:03:35.422Z,49.88
2023-09-09T17:06:04.037Z,50.30
2023-09-09T17:08:31.987Z,49.88
2023-09-09T17:10:59.891Z,49.93
2023-09-09T17:13:27.926Z,50.05
2023-09-09T17:15:55.887Z,50.28
2023-09-09T17:18:23.959Z,50.40
2023-09-09T17:20:53.489Z,49.94
2023-09-09T17:23:21.377Z,50.28
2023-09-09T17:25:49.321Z,50.38
2023-09-09T17:28:18.385Z,50.04
2023-09-09T17:30:47.068Z,50.07
2023-09-09T17:33:15.058Z,50.41
2023-09-09T17:35:43.187Z,50.42
2023-09-09T17:38:12.546Z,50.53
2023-09-09T17:40:40.444Z,49.90
2023-09-09T17:43:08.344Z,50.47
2023-09-09T17:45:36.422Z,50.11
2023-09-09T17:48:04.716Z,49.92
2023-09-09T17:50:32.719Z,50.03
2023-09-09T17:53:00.683Z,50.08
2023-09-09T17:55:30.110Z,50.13
2023-09-09T17:57:58.032Z,50.32
2023-09-09T18:00:26.389Z,49.95
2023-09-09T18:02:54.331Z,50.05
2023-09-09T18:05:22.306Z,50.28
2023-09-09T18:07:50.229Z,49.94
2023-09-09T18:10:18.191Z,50.40
2023-09-09T18:12:47.602Z,49.88
2023-09-09T18:15:15.474Z,50.33
2023-09-09T18:17:43.510Z,50.42
2023-09-09T18:20:11.706Z,49.93
2023-09-09T18:22:39.971Z,50.42
2023-09-09T18:25:08.168Z,50.12
2023-09-09T18:27:36.174Z,50.35
2023-09-09T18:30:06.549Z,50.07
2023-09-09T18:32:34.471Z,50.47
2023-09-09T18:35:02.483Z,50.52
2023-09-09T18:37:31.956Z,50.54
2023-09-09T18:39:59.929Z,50.21
2023-09-09T18:42:27.891Z,50.44
2023-09-09T18:44:55.786Z,50.00
2023-09-09T18:47:25.114Z,50.39
2023-09-09T18:49:53.977Z,50.05
2023-09-09T18:52:22.077Z,50.17
2023-09-09T18:54:50.098Z,50.40
2023-09-09T18:57:18.527Z,50.05
2023-09-09T18:59:46.469Z,49.92
2023-09-09T19:02:14.551Z,50.24
2023-09-09T19:04:44.073Z,50.29
2023-09-09T19:07:12.607Z,49.96
2023-09-09T19:09:40.504Z,49.92
2023-09-09T19:12:08.948Z,50.34
2023-09-09T19:14:36.876Z,49.97
2023-09-09T19:17:04.987Z,50.05
2023-09-09T19:19:32.995Z,50.00
2023-09-09T19:22:02.277Z,50.14
2023-09-09T19:24:30.157Z,50.35
2023-09-09T19:26:58.119Z,49.98
2023-09-09T19:29:25.988Z,49.80
2023-09-09T19:31:55.853Z,50.31
2023-09-09T19:34:24.240Z,50.05
2023-09-09T19:36:52.887Z,49.83
2023-09-09T19:39:22.148Z,50.23
2023-09-09T19:41:50.097Z,50.38
2023-09-09T19:44:18.128Z,50.06
2023-09-09T19:46:46.121Z,49.85
2023-09-09T19:49:14.147Z,50.12
2023-09-09T19:51:42.030Z,50.27
2023-09-09T19:54:10.542Z,50.19
2023-09-09T19:56:39.791Z,50.15
2023-09-09T19:59:07.815Z,49.88
2023-09-09T20:01:35.789Z,49.75
2023-09-09T20:04:03.882Z,50.09
2023-09-09T20:06:32.020Z,50.12
2023-09-09T20:09:04.713Z,50.17
2023-09-09T20:11:35.870Z,50.28
2023-09-09T20:14:05.930Z,49.86
2023-09-09T20:16:35.434Z,50.20
2023-09-09T20:19:03.400Z,49.70
2023-09-09T20:21:31.449Z,50.02
2023-09-09T20:23:59.381Z,49.74
2023-09-09T20:26:27.306Z,50.22
2023-09-09T20:28:55.235Z,49.84
2023-09-09T20:31:24.640Z,49.80
2023-09-09T20:33:53.418Z,49.83
2023-09-09T20:36:22.715Z,49.77
2023-09-09T20:38:50.626Z,49.80
2023-09-09T20:41:18.537Z,49.90
2023-09-09T20:43:46.876Z,49.93
2023-09-09T20:46:15.289Z,49.76
2023-09-09T20:48:44.638Z,50.04
2023-09-09T20:51:12.523Z,50.07
2023-09-09T20:53:40.493Z,50.07
2023-09-09T20:56:12.079Z,50.10
2023-09-09T20:58:41.395Z,49.79
2023-09-09T21:01:10.314Z,49.86
2023-09-09T21:03:38.365Z,50.08
2023-09-09T21:06:08.337Z,49.98
2023-09-09T21:08:36.614Z,49.86
2023-09-09T21:11:04.855Z,49.73
2023-09-09T21:13:32.795Z,50.06
2023-09-09T21:16:01.195Z,49.48
2023-09-09T21:18:35.929Z,49.63
2023-09-09T21:21:04.876Z,49.57
2023-09-09T21:23:39.754Z,49.58
2023-09-09T21:26:07.681Z,49.60
2023-09-09T21:28:35.790Z,49.59
2023-09-09T21:31:04.480Z,49.71
2023-09-09T21:33:33.227Z,49.51
2023-09-09T21:36:01.186Z,49.88
2023-09-09T21:38:29.087Z,49.88
2023-09-09T21:40:58.380Z,49.59
2023-09-09T21:43:26.384Z,49.68
2023-09-09T21:45:55.943Z,49.70
2023-09-09T21:48:23.854Z,49.69
2023-09-09T21:50:51.763Z,49.51
2023-09-09T21:53:19.944Z,49.83
2023-09-09T21:55:48.336Z,49.78
2023-09-09T21:58:18.117Z,49.62
2023-09-09T22:00:46.008Z,49.54
2023-09-09T22:03:14.026Z,49.48
2023-09-09T22:05:42.126Z,49.86
2023-09-09T22:08:10.053Z,49.64
2023-09-09T22:10:38.263Z,49.96
2023-09-09T22:13:06.326Z,49.56
2023-09-09T22:15:38.168Z,49.54
2023-09-09T22:18:06.576Z,49.48
2023-09-09T22:20:34.474Z,49.82
2023-09-09T22:23:04.277Z,49.43
2023-09-09T22:25:32.317Z,49.54
2023-09-09T22:28:00.342Z,49.61
2023-09-09T22:30:30.188Z,50.03
2023-09-09T22:32:59.644Z,49.96
2023-09-09T22:35:28.727Z,49.61
2023-09-09T22:37:58.174Z,49.54
2023-09-09T22:40:26.080Z,49.60
2023-09-09T22:42:53.964Z,49.49
2023-09-09T22:45:21.913Z,49.98
2023-09-09T22:47:49.861Z,49.88
2023-09-09T22:50:19.171Z,49.68
2023-09-09T22:52:47.183Z,49.64
2023-09-09T22:55:15.152Z,49.86
2023-09-09T22:57:43.052Z,49.36
2023-09-09T23:00:14.769Z,49.39
2023-09-09T23:02:42.948Z,49.54
2023-09-09T23:05:11.139Z,49.71
2023-09-09T23:07:50.487Z,49.37
2023-09-09T23:10:20.540Z,49.89
2023-09-09T23:12:48.628Z,49.48
2023-09-09T23:15:16.952Z,49.45
2023-09-09T23:17:44.881Z,49.89
2023-09-09T23:20:13.703Z,49.32
2023-09-09T23:22:45.677Z,49.60
2023-09-09T23:25:15.730Z,49.76
2023-09-09T23:27:44.062Z,49.81
2023-09-09T23:30:13.979Z,49.62
2023-09-09T23:32:42.220Z,49.81
2023-09-09T23:35:10.901Z,49.46
2023-09-09T23:37:38.930Z,49.58
2023-09-09T23:40:10.089Z,49.33
2023-09-09T23:42:38.180Z,49.38
2023-09-09T23:45:07.150Z,49.33
2023-09-09T23:47:35.186Z,49.53
2023-09-09T23:50:04.800Z,49.55
2023-09-09T23:52:33.339Z,49.63
2023-09-09T23:55:01.325Z,49.65
2023-09-09T23:57:30.580Z,49.46
2023-09-09T23:59:58.600Z,49.80
